< < Back
Terminal Aerodrome Forecast


Current Version              Previous Versions:   1  2  3  4  5  6  7  8  9  

Terminal Aerodrome Forecast

581
FTUS42 KCAE 290227 AAA
TAFCAE
TAF AMD
KCAE 290227Z 2902/2924 05008KT P6SM VCSH SCT035 OVC070
     FM290500 02005KT 5SM -SHRA BR BKN025 OVC040
     FM291400 35009G17KT 4SM SHRA BR SCT015 OVC030=

Latest METAR

521
SAUS80 KWBC 290400
MTRCAE
METAR KCAE 290356Z 03003KT 6SM RA BR BKN110 22/20 A3009 RMK AO2 SLP187
P0004 T02220200


USA.gov is the U.S. government's official web portal to all federal, state and local government web resources and services.